Home > Products > Valid Products > MTR

000
SAUS45 KMSO 012153
MTRP69
METAR KP69 012152Z AUTO 35003KT 04/M01 A3012 RMK AO1 SLP220
T00391011





000
SAUS45 KMSO 012053
MTRP69
METAR KP69 012052Z AUTO 00000KT 04/M03 A3012 RMK AO1 SLP220
T00441028 56024





000
SAUS45 KMSO 011954
MTRP69
METAR KP69 011952Z AUTO 00000KT 04/M03 A3014 RMK AO1 SLP227
T00391028





000
SAUS45 KMSO 011854
MTRP69
METAR KP69 011852Z AUTO 36004KT 03/M02 A3017 RMK AO1 SLP239
T00281022





000
SAUS45 KMSO 011753
MTRP69
METAR KP69 011752Z AUTO 02003KT 02/M02 A3020 RMK AO1 SLP248
T00171017 10017 21011 56025





000
SAUS45 KMSO 011653
MTRP69
METAR KP69 011652Z AUTO 00000KT 01/M02 A3021 RMK AO1 SLP254
T00061017





000
SAUS45 KMSO 011653
MTRP69
METAR KP69 011652Z AUTO 00000KT 01/M02 A3021 RMK AO1 SLP254
T00061017





000
SAUS45 KMSO 011553
MTRP69
METAR KP69 011552Z AUTO 00000KT 00/M02 A3025 RMK AO1 SLP266
T00001017





000
SAUS45 KMSO 011553
MTRP69
METAR KP69 011552Z AUTO 00000KT 00/M02 A3025 RMK AO1 SLP266
T00001017





000
SAUS45 KMSO 011453
MTRP69
METAR KP69 011452Z AUTO 00000KT M01/M02 A3027 RMK AO1 SLP275
T10061022 58008





000
SAUS45 KMSO 011353
MTRP69
METAR KP69 011352Z AUTO 00000KT M01/M02 A3030 RMK AO1 SLP283
T10061022





000
SAUS45 KMSO 011253
MTRP69
METAR KP69 011252Z AUTO 00000KT M01/M02 A3031 RMK AO1 SLP286
T10111022





000
SAUS45 KMSO 011153
MTRP69
METAR KP69 011152Z AUTO 31003KT M01/M03 A3030 RMK AO1 SLP282
T10111028 11006 21017 58008





000
SAUS45 KMSO 011053
MTRP69
METAR KP69 011052Z AUTO 00000KT M02/M03 A3031 RMK AO1 SLP286
T10171028





000
SAUS45 KMSO 010954
MTRP69
METAR KP69 010952Z AUTO 00000KT M01/M02 A3032 RMK AO1 SLP287
T10111022





000
SAUS45 KMSO 010853
MTRP69
METAR KP69 010852Z AUTO 00000KT M02/M03 A3033 RMK AO1 SLP289
T10171028 58004





000
SAUS45 KMSO 010753
MTRP69
METAR KP69 010752Z AUTO 00000KT M01/M02 A3033 RMK AO1 SLP294
T10111022 400441011





000
SAUS45 KMSO 010654
MTRP69
METAR KP69 010652Z AUTO 00000KT M01/M03 A3035 RMK AO1 SLP299
T10111028





000
SAUS45 KMSO 010654
MTRP69
METAR KP69 010652Z AUTO 00000KT M01/M03 A3035 RMK AO1 SLP299
T10111028





000
SAUS45 KMSO 010554
MTRP69
METAR KP69 010552Z AUTO 00000KT M01/M03 A3034 RMK AO1 SLP297
T10111028 10028 21011 51006





000
SAUS45 KMSO 010554
MTRP69
METAR KP69 010552Z AUTO 00000KT M01/M03 A3034 RMK AO1 SLP297
T10111028 10028 21011 51006





000
SAUS45 KMSO 010454
MTRP69
METAR KP69 010452Z AUTO 00000KT M01/M03 A3033 RMK AO1 SLP292
T10061028





000
SAUS45 KMSO 010454
MTRP69
METAR KP69 010452Z AUTO 00000KT M01/M03 A3033 RMK AO1 SLP292
T10061028





000
SAUS45 KMSO 010354
MTRP69
METAR KP69 010352Z AUTO 00000KT M01/M03 A3034 RMK AO1 SLP297
T10061028





000
SAUS45 KMSO 010354
MTRP69
METAR KP69 010352Z AUTO 00000KT M01/M03 A3034 RMK AO1 SLP297
T10061028





000
SAUS45 KMSO 010253
MTRP69
METAR KP69 010252Z AUTO 00000KT 00/M02 A3032 RMK AO1 SLP291
T00001022 51008





000
SAUS45 KMSO 010253
MTRP69
METAR KP69 010252Z AUTO 00000KT 00/M02 A3032 RMK AO1 SLP291
T00001022 51008





000
SAUS45 KMSO 010154
MTRP69
METAR KP69 010152Z AUTO 00000KT 01/M02 A3032 RMK AO1 SLP288
T00061022





000
SAUS45 KMSO 010154
MTRP69
METAR KP69 010152Z AUTO 00000KT 01/M02 A3032 RMK AO1 SLP288
T00061022





000
SAUS45 KMSO 010054
MTRP69
METAR KP69 010052Z AUTO 00000KT 01/M02 A3032 RMK AO1 SLP289
T00061022





000
SAUS45 KMSO 010054
MTRP69
METAR KP69 010052Z AUTO 00000KT 01/M02 A3032 RMK AO1 SLP289
T00061022





000
SAUS45 KMSO 312354
MTRP69
METAR KP69 312352Z AUTO VRB03KT 03/M03 A3030 RMK AO1 SLP279
T00281028 10044 20022 50000





000
SAUS45 KMSO 312254
MTRP69
METAR KP69 312252Z AUTO 14006KT 04/M03 A3032 RMK AO1 SLP285
T00391028





000
SAUS45 KMSO 312154
MTRP69
METAR KP69 312152Z AUTO 16009G19KT 04/M02 A3030 RMK AO1 SLP280
T00441022





000
SAUS45 KMSO 312154
MTRP69
METAR KP69 312152Z AUTO 16009G19KT 04/M02 A3030 RMK AO1 SLP280
T00441022





000
SAUS45 KMSO 312053
MTRP69
METAR KP69 312052Z AUTO 16007KT 120V190 04/M02 A3030 RMK AO1 SLP278
T00441022 56013





000
SAUS45 KMSO 311954
MTRP69
METAR KP69 311952Z AUTO 15006KT 03/M03 A3031 RMK AO1 SLP282
T00331028





000
SAUS45 KMSO 311853
MTRP69
METAR KP69 311852Z AUTO 18003KT 03/M02 A3033 RMK AO1 SLP287
T00331022





000
SAUS45 KMSO 311754
MTRP69
METAR KP69 311752Z AUTO 00000KT 02/M02 A3034 RMK AO1 SLP292
T00221017 10022 20006 51010





000
SAUS45 KMSO 311653
MTRP69
METAR KP69 311652Z AUTO 00000KT 02/M02 A3033 RMK AO1 SLP292
T00171017





000
SAUS45 KMSO 311554
MTRP69
METAR KP69 311552Z AUTO 00000KT 01/M01 A3032 RMK AO1 SLP289
T00111011





000
SAUS45 KMSO 311453
MTRP69
METAR KP69 311452Z AUTO 00000KT 01/M01 A3031 RMK AO1 SLP284
T00061011 53005





000
SAUS45 KMSO 311354
MTRP69
METAR KP69 311352Z AUTO 00000KT 01/M01 A3029 RMK AO1 SLP281
T00111011





000
SAUS45 KMSO 311254
MTRP69
METAR KP69 311252Z AUTO 00000KT 01/M02 A3029 RMK AO1 SLP279
T00111017





000
SAUS45 KMSO 311154
MTRP69
METAR KP69 311152Z AUTO 00000KT 01/M02 A3029 RMK AO1 SLP276
T00111017 10017 20011 51004





000
SAUS45 KMSO 311054
MTRP69
METAR KP69 311052Z AUTO 00000KT 01/M02 A3028 RMK AO1 SLP272
T00111017





000
SAUS45 KMSO 310953
MTRP69
METAR KP69 310952Z AUTO 00000KT 01/M02 A3029 RMK AO1 SLP275
T00111017





000
SAUS45 KMSO 310853
MTRP69
METAR KP69 310852Z AUTO 00000KT 01/M01 A3028 RMK AO1 SLP270
T00111011 58012





000
SAUS45 KMSO 310754
MTRP69
METAR KP69 310752Z AUTO 00000KT 01/M01 A3029 RMK AO1 SLP276
T00111011 400561011





000
SAUS45 KMSO 310654
MTRP69
METAR KP69 310652Z AUTO 00000KT 02/M01 A3031 RMK AO1 SLP280
T00171011





000
SAUS45 KMSO 310554
MTRP69
METAR KP69 310552Z AUTO 13003KT 02/M02 A3031 RMK AO1 SLP283
T00171017 10028 20000 58002





000
SAUS45 KMSO 310454
MTRP69
METAR KP69 310452Z AUTO 00000KT 01/M01 A3031 RMK AO1 SLP287
T00111011





000
SAUS45 KMSO 310354
MTRP69
METAR KP69 310352Z AUTO 00000KT 01/M01 A3033 RMK AO1 SLP295
T00111011





000
SAUS45 KMSO 310254
MTRP69
METAR KP69 310252Z AUTO 00000KT 01/M01 A3032 RMK AO1 SLP290
T00111011 53012





000
SAUS45 KMSO 310154
MTRP69
METAR KP69 310152Z AUTO 00000KT 00/M02 A3029 RMK AO1 SLP281
T00001017





000
SAUS45 KMSO 310054
MTRP69
METAR KP69 310052Z AUTO 00000KT 01/M01 A3028 RMK AO1 SLP278
T00111011





000
SAUS45 KMSO 302353
MTRP69
METAR KP69 302352Z AUTO 17006KT 03/M01 A3028 RMK AO1 SLP276
T00281011 10056 20022 55011





000
SAUS45 KMSO 302254
MTRP69
METAR KP69 302252Z AUTO 17010G16KT 04/M01 A3028 RMK AO1 SLP272
T00441006





000
SAUS45 KMSO 302153
MTRP69
METAR KP69 302152Z AUTO 16009G16KT 100V190 04/M01 A3030 RMK AO1
SLP278 T00441011





000
SAUS45 KMSO 302054
MTRP69
METAR KP69 302052Z AUTO 16009G17KT 140V200 04/M01 A3032 RMK AO1
SLP285 T00441011 58032





000
SAUS45 KMSO 301954
MTRP69
METAR KP69 301952Z AUTO 17009KT 04/M01 A3036 RMK AO1 SLP301
T00441006





000
SAUS45 KMSO 301853
MTRP69
METAR KP69 301852Z AUTO 00000KT 04/M01 A3039 RMK AO1 SLP310
T00391011





000
SAUS45 KMSO 301754
MTRP69
METAR KP69 301752Z AUTO 00000KT 02/M01 A3041 RMK AO1 SLP321
T00221011 10033 21011 58002





000
SAUS45 KMSO 301653
MTRP69
METAR KP69 301652Z AUTO 00000KT 01/M02 A3043 RMK AO1 SLP326
T00061017





000
SAUS45 KMSO 301554
MTRP69
METAR KP69 301552Z AUTO 00000KT M01/M02 A3043 RMK AO1 SLP327
T10061022





000
SAUS45 KMSO 301454
MTRP69
METAR KP69 301452Z AUTO 17003KT M01/M02 A3042 RMK AO1 SLP324
T10111022 50002





000
SAUS45 KMSO 301353
MTRP69
METAR KP69 301352Z AUTO 21003KT M01/M02 A3042 RMK AO1 SLP325
T10061022





000
SAUS45 KMSO 301253
MTRP69
METAR KP69 301252Z AUTO 00000KT M01/M02 A3042 RMK AO1 SLP324
T10111022





000
SAUS45 KMSO 301154
MTRP69
METAR KP69 301152Z AUTO 00000KT M01/M02 A3041 RMK AO1 SLP320
T10111022 10000 21011 58001





000
SAUS45 KMSO 301054
MTRP69
METAR KP69 301052Z AUTO 00000KT M01/M02 A3042 RMK AO1 SLP321
T10111017





000
SAUS45 KMSO 300954
MTRP69
METAR KP69 300952Z AUTO 00000KT M01/M02 A3042 RMK AO1 SLP320
T10061017





000
SAUS45 KMSO 300853
MTRP69
METAR KP69 300852Z AUTO 32003KT 00/M01 A3042 RMK AO1 SLP317
T00001011 58004





000
SAUS45 KMSO 300754
MTRP69
METAR KP69 300752Z AUTO 00000KT 00/M01 A3043 RMK AO1 SLP320
T00001011 400831006





000
SAUS45 KMSO 300654
MTRP69
METAR KP69 300652Z AUTO 00000KT 00/M01 A3043 RMK AO1 SLP324
T00001011





000
SAUS45 KMSO 300554
MTRP69
METAR KP69 300552Z AUTO 00000KT 00/M01 A3043 RMK AO1 SLP324
T00001011 10044 20000 53005





000
SAUS45 KMSO 300454
MTRP69
METAR KP69 300452Z AUTO 34003KT 00/M01 A3042 RMK AO1 SLP326
T00001011





000
SAUS45 KMSO 300353
MTRP69
METAR KP69 300352Z AUTO 00000KT 01/00 A3041 RMK AO1 SLP321 T00110000





000
SAUS45 KMSO 300253
MTRP69
METAR KP69 300252Z AUTO 34003KT 02/01 A3041 RMK AO1 SLP320 T00170006
52013





000
SAUS45 KMSO 300154
MTRP69
METAR KP69 300152Z AUTO 34003KT 02/01 A3040 RMK AO1 SLP315 T00220006





000
SAUS45 KMSO 300054
MTRP69
METAR KP69 300052Z AUTO 00000KT 03/01 A3039 RMK AO1 SLP310 T00280011





000
SAUS45 KMSO 292354
MTRP69
METAR KP69 292352Z AUTO 00000KT 04/02 A3037 RMK AO1 SLP303 T00440017
10083 20028 55009





000
SAUS45 KMSO 292254
MTRP69
METAR KP69 292252Z AUTO 00000KT 06/02 A3037 RMK AO1 SLP301 T00560022





    US Dept of Commerce
    National Oceanic and Atmospheric Administration
    National Weather Service
    1325 East West Highway
    Silver Spring, MD 20910
    Page Author: NWS Internet Services Team
Disclaimer
Information Quality
Credits
Glossary
Privacy Policy
Freedom of Information Act (FOIA)
About Us
Career Opportunities